sensor_id;sensor_type;location;lat;lon;timestamp;temperature;humidity
51615;DHT22;37695;52.960;6.188;2022-07-10T00:00:13;15.10;99.90
51615;DHT22;37695;52.960;6.188;2022-07-10T00:02:40;14.80;99.90
51615;DHT22;37695;52.960;6.188;2022-07-10T00:05:06;14.80;99.90
51615;DHT22;37695;52.960;6.188;2022-07-10T00:07:32;14.80;99.90
51615;DHT22;37695;52.960;6.188;2022-07-10T00:09:58;15.50;99.90
51615;DHT22;37695;52.960;6.188;2022-07-10T00:12:24;14.80;99.90
51615;DHT22;37695;52.960;6.188;2022-07-10T00:14:49;14.80;99.90
51615;DHT22;37695;52.960;6.188;2022-07-10T00:17:15;14.80;99.90
51615;DHT22;37695;52.960;6.188;2022-07-10T00:19:41;15.40;99.90
51615;DHT22;37695;52.960;6.188;2022-07-10T00:22:06;14.70;99.90
51615;DHT22;37695;52.960;6.188;2022-07-10T00:24:32;14.60;99.90
51615;DHT22;37695;52.960;6.188;2022-07-10T00:26:58;14.60;99.90
51615;DHT22;37695;52.960;6.188;2022-07-10T00:29:24;14.50;99.90
51615;DHT22;37695;52.960;6.188;2022-07-10T00:31:50;14.40;99.90
51615;DHT22;37695;52.960;6.188;2022-07-10T00:34:15;14.40;99.90
51615;DHT22;37695;52.960;6.188;2022-07-10T00:36:41;14.30;99.90
51615;DHT22;37695;52.960;6.188;2022-07-10T00:39:06;14.20;99.90
51615;DHT22;37695;52.960;6.188;2022-07-10T00:41:32;14.10;99.90
51615;DHT22;37695;52.960;6.188;2022-07-10T00:43:59;14.10;99.90
51615;DHT22;37695;52.960;6.188;2022-07-10T00:46:27;14.10;99.90
51615;DHT22;37695;52.960;6.188;2022-07-10T00:48:53;14.00;99.90
51615;DHT22;37695;52.960;6.188;2022-07-10T00:51:21;13.90;99.90
51615;DHT22;37695;52.960;6.188;2022-07-10T00:53:48;13.90;99.90
51615;DHT22;37695;52.960;6.188;2022-07-10T00:56:19;13.80;99.90
51615;DHT22;37695;52.960;6.188;2022-07-10T00:58:46;13.80;99.90
51615;DHT22;37695;52.960;6.188;2022-07-10T01:01:12;13.90;99.90
51615;DHT22;37695;52.960;6.188;2022-07-10T01:03:38;13.90;99.90
51615;DHT22;37695;52.960;6.188;2022-07-10T01:06:04;13.80;99.90
51615;DHT22;37695;52.960;6.188;2022-07-10T01:08:30;13.80;99.90
51615;DHT22;37695;52.960;6.188;2022-07-10T01:10:55;13.80;99.90
51615;DHT22;37695;52.960;6.188;2022-07-10T01:13:21;13.80;99.90
51615;DHT22;37695;52.960;6.188;2022-07-10T01:15:47;13.80;99.90
51615;DHT22;37695;52.960;6.188;2022-07-10T01:18:16;13.70;99.90
51615;DHT22;37695;52.960;6.188;2022-07-10T01:20:42;13.80;99.90
51615;DHT22;37695;52.960;6.188;2022-07-10T01:23:08;13.70;99.90
51615;DHT22;37695;52.960;6.188;2022-07-10T01:25:33;13.80;99.90
51615;DHT22;37695;52.960;6.188;2022-07-10T01:27:59;13.80;99.90
51615;DHT22;37695;52.960;6.188;2022-07-10T01:30:25;13.80;99.90
51615;DHT22;37695;52.960;6.188;2022-07-10T01:32:51;13.80;99.90
51615;DHT22;37695;52.960;6.188;2022-07-10T01:35:19;13.80;99.90
51615;DHT22;37695;52.960;6.188;2022-07-10T01:37:46;13.80;99.90
51615;DHT22;37695;52.960;6.188;2022-07-10T01:40:11;13.80;99.90
51615;DHT22;37695;52.960;6.188;2022-07-10T01:42:38;13.80;99.90
51615;DHT22;37695;52.960;6.188;2022-07-10T01:45:08;13.70;99.90
51615;DHT22;37695;52.960;6.188;2022-07-10T01:47:34;13.70;99.90
51615;DHT22;37695;52.960;6.188;2022-07-10T01:50:00;13.70;99.90
51615;DHT22;37695;52.960;6.188;2022-07-10T01:52:25;13.70;99.90
51615;DHT22;37695;52.960;6.188;2022-07-10T01:54:51;13.60;99.90
51615;DHT22;37695;52.960;6.188;2022-07-10T01:57:17;13.60;99.90
51615;DHT22;37695;52.960;6.188;2022-07-10T01:59:43;13.70;99.90
51615;DHT22;37695;52.960;6.188;2022-07-10T02:02:09;13.70;99.90
51615;DHT22;37695;52.960;6.188;2022-07-10T02:04:35;13.60;99.90
51615;DHT22;37695;52.960;6.188;2022-07-10T02:07:16;13.60;99.90
51615;DHT22;37695;52.960;6.188;2022-07-10T02:09:43;13.70;99.90
51615;DHT22;37695;52.960;6.188;2022-07-10T02:12:11;13.70;99.90
51615;DHT22;37695;52.960;6.188;2022-07-10T02:14:36;13.60;99.90
51615;DHT22;37695;52.960;6.188;2022-07-10T02:17:03;14.20;99.90
51615;DHT22;37695;52.960;6.188;2022-07-10T02:19:29;13.60;99.90
51615;DHT22;37695;52.960;6.188;2022-07-10T02:21:55;13.50;99.90
51615;DHT22;37695;52.960;6.188;2022-07-10T02:24:20;13.50;99.90
51615;DHT22;37695;52.960;6.188;2022-07-10T02:26:46;13.50;99.90
51615;DHT22;37695;52.960;6.188;2022-07-10T02:29:11;13.40;99.90
51615;DHT22;37695;52.960;6.188;2022-07-10T02:31:37;13.40;99.90
51615;DHT22;37695;52.960;6.188;2022-07-10T02:34:10;13.40;99.90
51615;DHT22;37695;52.960;6.188;2022-07-10T02:36:36;13.30;99.90
51615;DHT22;37695;52.960;6.188;2022-07-10T02:39:04;13.40;99.90
51615;DHT22;37695;52.960;6.188;2022-07-10T02:41:30;13.40;99.90
51615;DHT22;37695;52.960;6.188;2022-07-10T02:43:55;13.40;99.90
51615;DHT22;37695;52.960;6.188;2022-07-10T02:46:21;13.40;99.90
51615;DHT22;37695;52.960;6.188;2022-07-10T02:48:47;13.40;99.90
51615;DHT22;37695;52.960;6.188;2022-07-10T02:51:12;13.40;99.90
51615;DHT22;37695;52.960;6.188;2022-07-10T02:53:38;13.40;99.90
51615;DHT22;37695;52.960;6.188;2022-07-10T02:56:04;13.50;99.90
51615;DHT22;37695;52.960;6.188;2022-07-10T02:58:31;13.50;99.90
51615;DHT22;37695;52.960;6.188;2022-07-10T03:00:57;13.50;99.90
51615;DHT22;37695;52.960;6.188;2022-07-10T03:03:23;13.60;99.90
51615;DHT22;37695;52.960;6.188;2022-07-10T03:05:48;13.60;99.90
51615;DHT22;37695;52.960;6.188;2022-07-10T03:08:14;13.60;99.90
51615;DHT22;37695;52.960;6.188;2022-07-10T03:10:39;13.60;99.90
51615;DHT22;37695;52.960;6.188;2022-07-10T03:13:06;13.60;99.90
51615;DHT22;37695;52.960;6.188;2022-07-10T03:15:31;13.70;99.90
51615;DHT22;37695;52.960;6.188;2022-07-10T03:17:57;14.00;99.90
51615;DHT22;37695;52.960;6.188;2022-07-10T03:20:23;13.70;99.90
51615;DHT22;37695;52.960;6.188;2022-07-10T03:22:49;13.70;99.90
51615;DHT22;37695;52.960;6.188;2022-07-10T03:25:14;13.70;99.90
51615;DHT22;37695;52.960;6.188;2022-07-10T03:27:40;13.80;99.90
51615;DHT22;37695;52.960;6.188;2022-07-10T03:30:07;13.70;99.90
51615;DHT22;37695;52.960;6.188;2022-07-10T03:32:33;13.70;99.90
51615;DHT22;37695;52.960;6.188;2022-07-10T03:34:59;13.70;99.90
51615;DHT22;37695;52.960;6.188;2022-07-10T03:37:24;13.80;99.90
51615;DHT22;37695;52.960;6.188;2022-07-10T03:39:50;13.80;99.90
51615;DHT22;37695;52.960;6.188;2022-07-10T03:42:16;13.80;99.90
51615;DHT22;37695;52.960;6.188;2022-07-10T03:44:41;13.90;99.90
51615;DHT22;37695;52.960;6.188;2022-07-10T03:47:07;13.90;99.90
51615;DHT22;37695;52.960;6.188;2022-07-10T03:49:32;14.50;99.90
51615;DHT22;37695;52.960;6.188;2022-07-10T03:52:02;14.00;99.90
51615;DHT22;37695;52.960;6.188;2022-07-10T03:54:29;14.00;99.90
51615;DHT22;37695;52.960;6.188;2022-07-10T03:56:55;14.10;99.90
51615;DHT22;37695;52.960;6.188;2022-07-10T03:59:40;14.70;99.90
51615;DHT22;37695;52.960;6.188;2022-07-10T04:02:06;14.10;99.90
51615;DHT22;37695;52.960;6.188;2022-07-10T04:04:31;14.20;99.90
51615;DHT22;37695;52.960;6.188;2022-07-10T04:06:57;14.20;99.90
51615;DHT22;37695;52.960;6.188;2022-07-10T04:09:23;14.20;99.90
51615;DHT22;37695;52.960;6.188;2022-07-10T04:11:48;14.30;99.90
51615;DHT22;37695;52.960;6.188;2022-07-10T04:14:14;14.30;99.90
51615;DHT22;37695;52.960;6.188;2022-07-10T04:16:39;14.30;99.90
51615;DHT22;37695;52.960;6.188;2022-07-10T04:19:05;14.70;99.90
51615;DHT22;37695;52.960;6.188;2022-07-10T04:21:31;15.00;99.90
51615;DHT22;37695;52.960;6.188;2022-07-10T04:23:57;14.50;99.90
51615;DHT22;37695;52.960;6.188;2022-07-10T04:26:23;14.30;99.90
51615;DHT22;37695;52.960;6.188;2022-07-10T04:28:48;14.40;99.90
51615;DHT22;37695;52.960;6.188;2022-07-10T04:31:14;14.40;99.90
51615;DHT22;37695;52.960;6.188;2022-07-10T04:33:40;14.40;99.90
51615;DHT22;37695;52.960;6.188;2022-07-10T04:36:05;14.60;99.90
51615;DHT22;37695;52.960;6.188;2022-07-10T04:38:31;14.40;99.90
51615;DHT22;37695;52.960;6.188;2022-07-10T04:40:57;14.50;99.90
51615;DHT22;37695;52.960;6.188;2022-07-10T04:43:23;14.50;99.90
51615;DHT22;37695;52.960;6.188;2022-07-10T04:45:48;14.50;99.90
51615;DHT22;37695;52.960;6.188;2022-07-10T04:48:14;15.20;99.90
51615;DHT22;37695;52.960;6.188;2022-07-10T04:50:40;14.60;99.90
51615;DHT22;37695;52.960;6.188;2022-07-10T04:53:05;14.60;99.90
51615;DHT22;37695;52.960;6.188;2022-07-10T04:55:31;14.60;99.90
51615;DHT22;37695;52.960;6.188;2022-07-10T04:57:57;14.60;99.90
51615;DHT22;37695;52.960;6.188;2022-07-10T05:00:23;14.60;99.90
51615;DHT22;37695;52.960;6.188;2022-07-10T05:02:49;14.70;99.90
51615;DHT22;37695;52.960;6.188;2022-07-10T05:05:14;14.60;99.90
51615;DHT22;37695;52.960;6.188;2022-07-10T05:07:40;14.60;99.90
51615;DHT22;37695;52.960;6.188;2022-07-10T05:10:06;14.60;99.90
51615;DHT22;37695;52.960;6.188;2022-07-10T05:12:31;14.60;99.90
51615;DHT22;37695;52.960;6.188;2022-07-10T05:14:57;14.60;99.90
51615;DHT22;37695;52.960;6.188;2022-07-10T05:17:23;14.60;99.90
51615;DHT22;37695;52.960;6.188;2022-07-10T05:19:49;14.70;99.90
51615;DHT22;37695;52.960;6.188;2022-07-10T05:22:17;15.30;99.90
51615;DHT22;37695;52.960;6.188;2022-07-10T05:24:42;14.70;99.90
51615;DHT22;37695;52.960;6.188;2022-07-10T05:27:08;14.70;99.90
51615;DHT22;37695;52.960;6.188;2022-07-10T05:29:33;14.70;99.90
51615;DHT22;37695;52.960;6.188;2022-07-10T05:31:59;14.70;99.90
51615;DHT22;37695;52.960;6.188;2022-07-10T05:34:25;15.30;99.90
51615;DHT22;37695;52.960;6.188;2022-07-10T05:36:50;14.70;99.90
51615;DHT22;37695;52.960;6.188;2022-07-10T05:39:16;14.80;99.90
51615;DHT22;37695;52.960;6.188;2022-07-10T05:41:41;14.90;99.90
51615;DHT22;37695;52.960;6.188;2022-07-10T05:44:07;15.00;99.90
51615;DHT22;37695;52.960;6.188;2022-07-10T05:46:32;15.10;99.90
51615;DHT22;37695;52.960;6.188;2022-07-10T05:48:58;15.10;99.90
51615;DHT22;37695;52.960;6.188;2022-07-10T05:51:23;15.10;99.90
51615;DHT22;37695;52.960;6.188;2022-07-10T05:53:49;15.20;99.90
51615;DHT22;37695;52.960;6.188;2022-07-10T05:56:14;15.20;99.90
51615;DHT22;37695;52.960;6.188;2022-07-10T05:58:40;15.20;99.90
51615;DHT22;37695;52.960;6.188;2022-07-10T06:01:06;15.20;99.90
51615;DHT22;37695;52.960;6.188;2022-07-10T06:03:31;15.20;99.90
51615;DHT22;37695;52.960;6.188;2022-07-10T06:05:58;15.50;99.90
51615;DHT22;37695;52.960;6.188;2022-07-10T06:08:25;15.30;99.90
51615;DHT22;37695;52.960;6.188;2022-07-10T06:10:50;15.20;99.90
51615;DHT22;37695;52.960;6.188;2022-07-10T06:13:16;15.20;99.90
51615;DHT22;37695;52.960;6.188;2022-07-10T06:15:41;15.20;99.90
51615;DHT22;37695;52.960;6.188;2022-07-10T06:18:07;15.60;99.90
51615;DHT22;37695;52.960;6.188;2022-07-10T06:20:32;15.10;99.90
51615;DHT22;37695;52.960;6.188;2022-07-10T06:22:58;15.10;99.90
51615;DHT22;37695;52.960;6.188;2022-07-10T06:25:24;15.10;99.90
51615;DHT22;37695;52.960;6.188;2022-07-10T06:27:49;15.10;99.90
51615;DHT22;37695;52.960;6.188;2022-07-10T06:30:15;15.10;99.90
51615;DHT22;37695;52.960;6.188;2022-07-10T06:32:41;15.50;99.90
51615;DHT22;37695;52.960;6.188;2022-07-10T06:35:07;15.20;99.90
51615;DHT22;37695;52.960;6.188;2022-07-10T06:37:33;15.20;99.90
51615;DHT22;37695;52.960;6.188;2022-07-10T06:39:59;15.60;99.90
51615;DHT22;37695;52.960;6.188;2022-07-10T06:42:25;15.40;99.90
51615;DHT22;37695;52.960;6.188;2022-07-10T06:44:51;15.40;99.90
51615;DHT22;37695;52.960;6.188;2022-07-10T06:47:18;15.90;99.90
51615;DHT22;37695;52.960;6.188;2022-07-10T06:50:07;15.50;99.90
51615;DHT22;37695;52.960;6.188;2022-07-10T06:52:33;15.50;99.90
51615;DHT22;37695;52.960;6.188;2022-07-10T06:55:00;15.50;99.90
51615;DHT22;37695;52.960;6.188;2022-07-10T06:57:26;15.50;99.90
51615;DHT22;37695;52.960;6.188;2022-07-10T06:59:52;15.40;99.90
51615;DHT22;37695;52.960;6.188;2022-07-10T07:02:18;15.50;99.90
51615;DHT22;37695;52.960;6.188;2022-07-10T07:04:44;15.50;99.90
51615;DHT22;37695;52.960;6.188;2022-07-10T07:07:13;15.50;99.90
51615;DHT22;37695;52.960;6.188;2022-07-10T07:09:39;15.50;99.90
51615;DHT22;37695;52.960;6.188;2022-07-10T07:12:06;15.50;99.90
51615;DHT22;37695;52.960;6.188;2022-07-10T07:14:32;15.50;99.90
51615;DHT22;37695;52.960;6.188;2022-07-10T07:16:58;15.50;99.90
51615;DHT22;37695;52.960;6.188;2022-07-10T07:19:32;15.60;99.90
51615;DHT22;37695;52.960;6.188;2022-07-10T07:22:17;15.70;99.90
51615;DHT22;37695;52.960;6.188;2022-07-10T07:25:02;15.90;99.90
51615;DHT22;37695;52.960;6.188;2022-07-10T07:27:27;15.90;99.90
51615;DHT22;37695;52.960;6.188;2022-07-10T07:29:53;16.10;99.90
51615;DHT22;37695;52.960;6.188;2022-07-10T07:32:18;16.20;99.90
51615;DHT22;37695;52.960;6.188;2022-07-10T07:34:44;16.20;99.90
51615;DHT22;37695;52.960;6.188;2022-07-10T07:37:10;16.10;99.90
51615;DHT22;37695;52.960;6.188;2022-07-10T07:39:35;16.10;99.90
51615;DHT22;37695;52.960;6.188;2022-07-10T07:42:02;16.00;99.90
51615;DHT22;37695;52.960;6.188;2022-07-10T07:44:27;15.90;99.90
51615;DHT22;37695;52.960;6.188;2022-07-10T07:46:54;15.80;99.90
51615;DHT22;37695;52.960;6.188;2022-07-10T07:49:20;15.80;99.90
51615;DHT22;37695;52.960;6.188;2022-07-10T07:51:45;15.80;99.90
51615;DHT22;37695;52.960;6.188;2022-07-10T07:54:12;15.80;99.90
51615;DHT22;37695;52.960;6.188;2022-07-10T07:56:37;15.80;99.90
51615;DHT22;37695;52.960;6.188;2022-07-10T07:59:03;15.80;99.90
51615;DHT22;37695;52.960;6.188;2022-07-10T08:01:28;15.80;99.90
51615;DHT22;37695;52.960;6.188;2022-07-10T08:03:54;15.80;99.90
51615;DHT22;37695;52.960;6.188;2022-07-10T08:06:21;15.90;99.90
51615;DHT22;37695;52.960;6.188;2022-07-10T08:08:46;15.90;99.90
51615;DHT22;37695;52.960;6.188;2022-07-10T08:11:12;16.00;99.90
51615;DHT22;37695;52.960;6.188;2022-07-10T08:13:37;15.90;99.90
51615;DHT22;37695;52.960;6.188;2022-07-10T08:16:03;15.90;99.90
51615;DHT22;37695;52.960;6.188;2022-07-10T08:18:29;15.90;99.90
51615;DHT22;37695;52.960;6.188;2022-07-10T08:20:55;16.00;99.90
51615;DHT22;37695;52.960;6.188;2022-07-10T08:23:20;16.00;99.90
51615;DHT22;37695;52.960;6.188;2022-07-10T08:25:46;16.00;99.90
51615;DHT22;37695;52.960;6.188;2022-07-10T08:28:11;16.00;99.90
51615;DHT22;37695;52.960;6.188;2022-07-10T08:30:37;16.20;99.90
51615;DHT22;37695;52.960;6.188;2022-07-10T08:33:03;16.00;99.90
51615;DHT22;37695;52.960;6.188;2022-07-10T08:35:29;16.10;99.90
51615;DHT22;37695;52.960;6.188;2022-07-10T08:37:55;16.10;99.90
51615;DHT22;37695;52.960;6.188;2022-07-10T08:40:22;16.20;99.90
51615;DHT22;37695;52.960;6.188;2022-07-10T08:42:47;16.30;99.90
51615;DHT22;37695;52.960;6.188;2022-07-10T08:45:14;16.40;99.90
51615;DHT22;37695;52.960;6.188;2022-07-10T08:47:41;16.50;99.90
51615;DHT22;37695;52.960;6.188;2022-07-10T08:50:22;16.60;99.90
51615;DHT22;37695;52.960;6.188;2022-07-10T08:52:52;16.60;99.90
51615;DHT22;37695;52.960;6.188;2022-07-10T08:55:25;16.60;99.90
51615;DHT22;37695;52.960;6.188;2022-07-10T08:57:51;16.60;99.90
51615;DHT22;37695;52.960;6.188;2022-07-10T09:00:17;16.60;99.90
51615;DHT22;37695;52.960;6.188;2022-07-10T09:02:43;16.60;99.90
51615;DHT22;37695;52.960;6.188;2022-07-10T09:05:09;16.60;99.90
51615;DHT22;37695;52.960;6.188;2022-07-10T09:07:37;16.70;99.90
51615;DHT22;37695;52.960;6.188;2022-07-10T09:10:10;16.70;99.90
51615;DHT22;37695;52.960;6.188;2022-07-10T09:15:18;16.30;99.90
51615;DHT22;37695;52.960;6.188;2022-07-10T09:18:02;16.50;99.90
51615;DHT22;37695;52.960;6.188;2022-07-10T09:20:36;16.50;99.90
51615;DHT22;37695;52.960;6.188;2022-07-10T09:23:28;16.40;99.90
51615;DHT22;37695;52.960;6.188;2022-07-10T09:25:54;16.40;99.90
51615;DHT22;37695;52.960;6.188;2022-07-10T09:28:21;16.50;99.90
51615;DHT22;37695;52.960;6.188;2022-07-10T09:30:47;16.70;99.90
51615;DHT22;37695;52.960;6.188;2022-07-10T09:33:24;16.80;99.90
51615;DHT22;37695;52.960;6.188;2022-07-10T09:36:06;17.00;99.90
51615;DHT22;37695;52.960;6.188;2022-07-10T09:46:15;17.20;99.90
51615;DHT22;37695;52.960;6.188;2022-07-10T09:48:41;17.10;99.90
51615;DHT22;37695;52.960;6.188;2022-07-10T09:51:09;17.00;99.90
51615;DHT22;37695;52.960;6.188;2022-07-10T09:53:43;17.00;99.90
51615;DHT22;37695;52.960;6.188;2022-07-10T09:56:11;16.90;99.90
51615;DHT22;37695;52.960;6.188;2022-07-10T09:58:38;16.90;99.90
51615;DHT22;37695;52.960;6.188;2022-07-10T10:01:05;17.00;99.90
51615;DHT22;37695;52.960;6.188;2022-07-10T10:03:37;17.00;99.90
51615;DHT22;37695;52.960;6.188;2022-07-10T10:06:11;17.10;99.90
51615;DHT22;37695;52.960;6.188;2022-07-10T10:08:48;17.30;99.90
51615;DHT22;37695;52.960;6.188;2022-07-10T10:11:20;17.50;99.90
51615;DHT22;37695;52.960;6.188;2022-07-10T10:13:49;17.70;99.90
51615;DHT22;37695;52.960;6.188;2022-07-10T10:16:15;17.90;99.90
51615;DHT22;37695;52.960;6.188;2022-07-10T10:18:43;18.20;99.90
51615;DHT22;37695;52.960;6.188;2022-07-10T10:21:28;18.50;99.90
51615;DHT22;37695;52.960;6.188;2022-07-10T10:23:54;18.50;99.90
51615;DHT22;37695;52.960;6.188;2022-07-10T10:26:22;18.40;99.90
51615;DHT22;37695;52.960;6.188;2022-07-10T10:28:49;18.20;99.90
51615;DHT22;37695;52.960;6.188;2022-07-10T10:31:16;18.10;99.90
51615;DHT22;37695;52.960;6.188;2022-07-10T10:33:44;17.90;99.90
51615;DHT22;37695;52.960;6.188;2022-07-10T10:39:22;17.80;99.90
51615;DHT22;37695;52.960;6.188;2022-07-10T10:41:51;17.80;99.90
51615;DHT22;37695;52.960;6.188;2022-07-10T10:46:59;18.20;99.90
51615;DHT22;37695;52.960;6.188;2022-07-10T10:49:47;18.30;99.90
51615;DHT22;37695;52.960;6.188;2022-07-10T10:52:14;18.50;99.90
51615;DHT22;37695;52.960;6.188;2022-07-10T10:57:23;18.60;99.90
51615;DHT22;37695;52.960;6.188;2022-07-10T10:59:50;18.50;99.90
51615;DHT22;37695;52.960;6.188;2022-07-10T11:02:28;18.40;99.90
51615;DHT22;37695;52.960;6.188;2022-07-10T11:10:40;17.80;99.90
51615;DHT22;37695;52.960;6.188;2022-07-10T11:13:11;17.70;99.90
51615;DHT22;37695;52.960;6.188;2022-07-10T11:15:47;17.60;99.90
51615;DHT22;37695;52.960;6.188;2022-07-10T11:18:20;17.50;99.90
51615;DHT22;37695;52.960;6.188;2022-07-10T11:20:52;17.40;99.90
51615;DHT22;37695;52.960;6.188;2022-07-10T11:26:15;17.40;99.90
51615;DHT22;37695;52.960;6.188;2022-07-10T11:28:55;17.40;99.90
51615;DHT22;37695;52.960;6.188;2022-07-10T11:31:25;17.40;99.90
51615;DHT22;37695;52.960;6.188;2022-07-10T11:33:56;17.30;99.90
51615;DHT22;37695;52.960;6.188;2022-07-10T11:36:22;17.20;99.90
51615;DHT22;37695;52.960;6.188;2022-07-10T11:38:56;17.30;99.90
51615;DHT22;37695;52.960;6.188;2022-07-10T11:41:23;17.20;99.90
51615;DHT22;37695;52.960;6.188;2022-07-10T11:43:54;17.20;99.90
51615;DHT22;37695;52.960;6.188;2022-07-10T11:46:21;17.30;99.90
51615;DHT22;37695;52.960;6.188;2022-07-10T11:48:48;17.40;99.90
51615;DHT22;37695;52.960;6.188;2022-07-10T11:51:21;17.60;99.90
51615;DHT22;37695;52.960;6.188;2022-07-10T11:54:01;17.70;99.90
51615;DHT22;37695;52.960;6.188;2022-07-10T11:56:29;17.80;99.90
51615;DHT22;37695;52.960;6.188;2022-07-10T11:59:02;17.80;99.90
51615;DHT22;37695;52.960;6.188;2022-07-10T12:01:30;17.90;99.90
51615;DHT22;37695;52.960;6.188;2022-07-10T12:04:04;17.80;99.90
51615;DHT22;37695;52.960;6.188;2022-07-10T12:06:34;17.80;99.90
51615;DHT22;37695;52.960;6.188;2022-07-10T12:09:07;17.80;99.90
51615;DHT22;37695;52.960;6.188;2022-07-10T12:11:34;17.80;99.90
51615;DHT22;37695;52.960;6.188;2022-07-10T12:14:17;17.80;99.90
51615;DHT22;37695;52.960;6.188;2022-07-10T12:16:48;17.90;99.90
51615;DHT22;37695;52.960;6.188;2022-07-10T12:19:18;17.90;99.90
51615;DHT22;37695;52.960;6.188;2022-07-10T12:21:46;18.00;99.90
51615;DHT22;37695;52.960;6.188;2022-07-10T12:24:13;18.10;99.90
51615;DHT22;37695;52.960;6.188;2022-07-10T12:26:40;18.20;99.90
51615;DHT22;37695;52.960;6.188;2022-07-10T12:29:25;18.30;99.90
51615;DHT22;37695;52.960;6.188;2022-07-10T12:31:53;18.50;99.90
51615;DHT22;37695;52.960;6.188;2022-07-10T12:34:36;18.60;99.90
51615;DHT22;37695;52.960;6.188;2022-07-10T12:37:09;18.80;99.90
51615;DHT22;37695;52.960;6.188;2022-07-10T12:39:46;19.30;99.90
51615;DHT22;37695;52.960;6.188;2022-07-10T12:42:12;18.80;99.90
51615;DHT22;37695;52.960;6.188;2022-07-10T12:44:43;18.80;99.90
51615;DHT22;37695;52.960;6.188;2022-07-10T12:47:13;18.80;99.90
51615;DHT22;37695;52.960;6.188;2022-07-10T12:49:53;18.70;99.90
51615;DHT22;37695;52.960;6.188;2022-07-10T12:52:26;18.60;99.90
51615;DHT22;37695;52.960;6.188;2022-07-10T12:57:50;18.50;99.90
51615;DHT22;37695;52.960;6.188;2022-07-10T13:00:21;18.50;99.90
51615;DHT22;37695;52.960;6.188;2022-07-10T13:02:48;18.60;99.90
51615;DHT22;37695;52.960;6.188;2022-07-10T13:05:27;18.50;99.90
51615;DHT22;37695;52.960;6.188;2022-07-10T13:07:53;18.40;99.90
51615;DHT22;37695;52.960;6.188;2022-07-10T13:10:30;18.30;99.90
51615;DHT22;37695;52.960;6.188;2022-07-10T13:12:56;18.30;99.90
51615;DHT22;37695;52.960;6.188;2022-07-10T13:15:21;18.30;99.90
51615;DHT22;37695;52.960;6.188;2022-07-10T13:17:48;18.30;99.90
51615;DHT22;37695;52.960;6.188;2022-07-10T13:20:14;18.30;99.90
51615;DHT22;37695;52.960;6.188;2022-07-10T13:22:40;18.40;99.90
51615;DHT22;37695;52.960;6.188;2022-07-10T13:25:05;18.60;99.90
51615;DHT22;37695;52.960;6.188;2022-07-10T13:27:31;18.80;99.90
51615;DHT22;37695;52.960;6.188;2022-07-10T13:29:57;19.00;99.90
51615;DHT22;37695;52.960;6.188;2022-07-10T13:32:23;19.10;99.90
51615;DHT22;37695;52.960;6.188;2022-07-10T13:34:49;19.30;99.90
51615;DHT22;37695;52.960;6.188;2022-07-10T13:37:14;19.30;99.90
51615;DHT22;37695;52.960;6.188;2022-07-10T13:39:40;19.20;99.90
51615;DHT22;37695;52.960;6.188;2022-07-10T13:42:06;19.20;99.90
51615;DHT22;37695;52.960;6.188;2022-07-10T13:44:31;19.30;99.90
51615;DHT22;37695;52.960;6.188;2022-07-10T13:46:57;19.40;99.90
51615;DHT22;37695;52.960;6.188;2022-07-10T13:49:23;19.60;99.90
51615;DHT22;37695;52.960;6.188;2022-07-10T13:51:48;19.90;99.90
51615;DHT22;37695;52.960;6.188;2022-07-10T13:54:14;20.00;99.90
51615;DHT22;37695;52.960;6.188;2022-07-10T13:56:40;20.30;99.90
51615;DHT22;37695;52.960;6.188;2022-07-10T13:59:06;20.50;99.90
51615;DHT22;37695;52.960;6.188;2022-07-10T14:01:31;20.70;99.90
51615;DHT22;37695;52.960;6.188;2022-07-10T14:03:57;20.70;99.90
51615;DHT22;37695;52.960;6.188;2022-07-10T14:06:23;20.80;99.90
51615;DHT22;37695;52.960;6.188;2022-07-10T14:08:48;20.90;99.90
51615;DHT22;37695;52.960;6.188;2022-07-10T14:11:14;20.80;99.90
51615;DHT22;37695;52.960;6.188;2022-07-10T14:13:40;20.80;99.90
51615;DHT22;37695;52.960;6.188;2022-07-10T14:16:05;20.90;99.90
51615;DHT22;37695;52.960;6.188;2022-07-10T14:18:31;20.90;99.90
51615;DHT22;37695;52.960;6.188;2022-07-10T14:21:01;20.90;99.90
51615;DHT22;37695;52.960;6.188;2022-07-10T14:23:30;21.00;99.90
51615;DHT22;37695;52.960;6.188;2022-07-10T14:25:56;20.90;99.90
51615;DHT22;37695;52.960;6.188;2022-07-10T14:28:22;20.90;99.90
51615;DHT22;37695;52.960;6.188;2022-07-10T14:30:49;21.00;99.90
51615;DHT22;37695;52.960;6.188;2022-07-10T14:33:14;20.90;99.90
51615;DHT22;37695;52.960;6.188;2022-07-10T14:35:40;20.80;99.90
51615;DHT22;37695;52.960;6.188;2022-07-10T14:38:05;20.70;99.90
51615;DHT22;37695;52.960;6.188;2022-07-10T14:40:32;20.60;99.90
51615;DHT22;37695;52.960;6.188;2022-07-10T14:42:57;20.50;99.90
51615;DHT22;37695;52.960;6.188;2022-07-10T14:45:24;20.40;99.90
51615;DHT22;37695;52.960;6.188;2022-07-10T14:47:50;20.40;99.90
51615;DHT22;37695;52.960;6.188;2022-07-10T14:50:15;20.40;99.90
51615;DHT22;37695;52.960;6.188;2022-07-10T14:52:44;20.30;99.90
51615;DHT22;37695;52.960;6.188;2022-07-10T14:55:10;20.30;99.90
51615;DHT22;37695;52.960;6.188;2022-07-10T14:57:36;20.30;99.90
51615;DHT22;37695;52.960;6.188;2022-07-10T15:00:02;20.30;99.90
51615;DHT22;37695;52.960;6.188;2022-07-10T15:02:28;20.40;99.90
51615;DHT22;37695;52.960;6.188;2022-07-10T15:04:54;20.40;99.90
51615;DHT22;37695;52.960;6.188;2022-07-10T15:07:19;20.50;99.90
51615;DHT22;37695;52.960;6.188;2022-07-10T15:09:45;20.50;99.90
51615;DHT22;37695;52.960;6.188;2022-07-10T15:12:10;20.50;99.90
51615;DHT22;37695;52.960;6.188;2022-07-10T15:14:36;20.40;99.90
51615;DHT22;37695;52.960;6.188;2022-07-10T15:17:02;20.40;99.90
51615;DHT22;37695;52.960;6.188;2022-07-10T15:19:28;20.30;99.90
51615;DHT22;37695;52.960;6.188;2022-07-10T15:21:53;20.20;99.90
51615;DHT22;37695;52.960;6.188;2022-07-10T15:24:19;20.20;99.90
51615;DHT22;37695;52.960;6.188;2022-07-10T15:26:45;20.20;99.90
51615;DHT22;37695;52.960;6.188;2022-07-10T15:29:10;20.20;99.90
51615;DHT22;37695;52.960;6.188;2022-07-10T15:31:36;20.20;99.90
51615;DHT22;37695;52.960;6.188;2022-07-10T15:34:10;20.20;99.90
51615;DHT22;37695;52.960;6.188;2022-07-10T15:36:39;20.30;99.90
51615;DHT22;37695;52.960;6.188;2022-07-10T15:39:05;20.30;99.90
51615;DHT22;37695;52.960;6.188;2022-07-10T15:41:31;20.40;99.90
51615;DHT22;37695;52.960;6.188;2022-07-10T15:43:58;20.40;99.90
51615;DHT22;37695;52.960;6.188;2022-07-10T15:46:24;20.40;99.90
51615;DHT22;37695;52.960;6.188;2022-07-10T15:48:50;20.40;99.90
51615;DHT22;37695;52.960;6.188;2022-07-10T15:51:16;20.30;99.90
51615;DHT22;37695;52.960;6.188;2022-07-10T15:53:42;20.10;99.90
51615;DHT22;37695;52.960;6.188;2022-07-10T15:56:08;20.10;99.90
51615;DHT22;37695;52.960;6.188;2022-07-10T15:58:34;20.10;99.90
51615;DHT22;37695;52.960;6.188;2022-07-10T16:01:00;20.10;99.90